Time,TemperatureF,DewpointF,PressureIn,WindDirection,WindDirectionDegrees,WindSpeedMPH,WindSpeedGustMPH,Humidity,HourlyPrecipIn,Conditions,Clouds,dailyrainin,SoftwareType,DateUTC
2013-01-08 00:04:00,22.6,19.1,29.97,SE,135,0.0,0.0,86,0.00,CLR,,0.00,WeatherDisplay:10.37,2013-01-08 06:04:00,
2013-01-08 00:09:00,22.6,19.1,29.97,SE,135,0.0,0.0,86,0.00,CLR,,0.00,WeatherDisplay:10.37,2013-01-08 06:09:00,
2013-01-08 00:14:00,22.6,19.4,29.96,SE,135,0.0,0.0,87,0.00,CLR,,0.00,WeatherDisplay:10.37,2013-01-08 06:14:00,
2013-01-08 00:19:00,22.5,19.2,29.96,ESE,112,0.0,0.0,87,0.00,CLR,,0.00,WeatherDisplay:10.37,2013-01-08 06:19:00,
2013-01-08 00:24:00,22.5,19.2,29.96,ESE,112,0.0,0.0,87,0.00,CLR,,0.00,WeatherDisplay:10.37,2013-01-08 06:24:00,
2013-01-08 00:29:00,22.1,18.8,29.97,ESE,112,0.0,0.0,87,0.00,CLR,,0.00,WeatherDisplay:10.37,2013-01-08 06:29:00,
2013-01-08 00:34:00,21.9,18.6,29.96,ESE,112,0.0,0.0,87,0.00,CLR,,0.00,WeatherDisplay:10.37,2013-01-08 06:34:00,
2013-01-08 00:39:00,21.6,18.3,29.97,ESE,112,0.0,0.0,87,0.00,CLR,,0.00,WeatherDisplay:10.37,2013-01-08 06:39:00,
2013-01-08 00:44:00,21.6,18.3,29.96,ESE,112,0.0,0.0,87,0.00,CLR,,0.00,WeatherDisplay:10.37,2013-01-08 06:44:00,
2013-01-08 00:49:00,21.6,18.6,29.96,ESE,112,0.0,0.0,88,0.00,CLR,,0.00,WeatherDisplay:10.37,2013-01-08 06:49:00,
2013-01-08 00:54:00,21.4,18.4,29.96,ESE,112,0.0,0.0,88,0.00,CLR,,0.00,WeatherDisplay:10.37,2013-01-08 06:54:00,
2013-01-08 00:59:00,21.4,18.4,29.96,ESE,112,0.0,0.0,88,0.00,CLR,,0.00,WeatherDisplay:10.37,2013-01-08 06:59:00,
2013-01-08 01:04:00,21.4,18.4,29.96,ESE,112,0.0,0.0,88,0.00,CLR,,0.00,WeatherDisplay:10.37,2013-01-08 07:04:00,
2013-01-08 01:09:00,21.4,18.4,29.96,ESE,112,0.0,0.0,88,0.00,CLR,,0.00,WeatherDisplay:10.37,2013-01-08 07:09:00,
2013-01-08 01:14:00,21.4,18.6,29.96,ESE,112,0.0,0.0,89,0.00,CLR,,0.00,WeatherDisplay:10.37,2013-01-08 07:14:00,
2013-01-08 01:19:00,21.6,18.8,29.96,ESE,112,0.0,0.0,89,0.00,CLR,,0.00,WeatherDisplay:10.37,2013-01-08 07:19:00,
2013-01-08 01:24:00,21.7,19.3,29.96,ESE,112,0.0,0.0,90,0.00,CLR,,0.00,WeatherDisplay:10.37,2013-01-08 07:24:00,
2013-01-08 01:29:00,21.9,19.4,29.96,ESE,112,0.0,0.0,90,0.00,CLR,,0.00,WeatherDisplay:10.37,2013-01-08 07:29:00,
2013-01-08 01:34:00,22.1,19.6,29.96,ESE,112,0.0,0.0,90,0.00,CLR,,0.00,WeatherDisplay:10.37,2013-01-08 07:34:00,
2013-01-08 01:39:00,22.3,20.1,29.96,ESE,112,0.0,0.0,91,0.00,CLR,,0.00,WeatherDisplay:10.37,2013-01-08 07:39:00,
2013-01-08 01:44:00,21.9,19.7,29.96,ESE,112,0.0,0.0,91,0.00,CLR,,0.00,WeatherDisplay:10.37,2013-01-08 07:44:00,
2013-01-08 01:49:00,21.7,19.5,29.96,ESE,112,0.0,0.0,91,0.00,CLR,,0.00,WeatherDisplay:10.37,2013-01-08 07:49:00,
2013-01-08 01:54:00,21.7,19.5,29.96,ESE,112,0.0,0.0,91,0.00,CLR,,0.00,WeatherDisplay:10.37,2013-01-08 07:54:00,
2013-01-08 01:59:00,21.7,19.5,29.96,ESE,112,0.0,0.0,91,0.00,CLR,,0.00,WeatherDisplay:10.37,2013-01-08 07:59:00,
2013-01-08 02:04:00,21.7,19.5,29.96,SE,135,0.0,0.0,91,0.00,CLR,,0.00,WeatherDisplay:10.37,2013-01-08 08:04:00,
2013-01-08 02:09:00,21.6,19.3,29.96,SSE,158,1.4,1.4,91,0.00,CLR,,0.00,WeatherDisplay:10.37,2013-01-08 08:09:00,
2013-01-08 02:14:00,21.4,19.4,29.95,SSE,158,1.1,1.1,92,0.00,CLR,,0.00,WeatherDisplay:10.37,2013-01-08 08:14:00,
2013-01-08 02:19:00,21.2,19.2,29.95,SSE,158,0.0,0.0,92,0.00,CLR,,0.00,WeatherDisplay:10.37,2013-01-08 08:19:00,
2013-01-08 02:24:00,20.8,18.9,29.96,SSE,158,0.0,0.0,92,0.00,CLR,,0.00,WeatherDisplay:10.37,2013-01-08 08:24:00,
2013-01-08 02:29:00,20.5,18.5,29.96,East,90,0.0,0.0,92,0.00,CLR,,0.00,WeatherDisplay:10.37,2013-01-08 08:29:00,
2013-01-08 02:34:00,19.6,17.4,29.96,East,90,0.0,0.0,91,0.00,CLR,,0.00,WeatherDisplay:10.37,2013-01-08 08:34:00,
2013-01-08 02:39:00,19.2,17.0,29.95,East,90,0.0,0.0,91,0.00,CLR,,0.00,WeatherDisplay:10.37,2013-01-08 08:39:00,
2013-01-08 02:44:00,19.2,17.0,29.96,ESE,112,0.0,0.0,91,0.00,CLR,,0.00,WeatherDisplay:10.37,2013-01-08 08:44:00,
2013-01-08 02:49:00,19.2,17.0,29.95,SE,135,0.0,0.0,91,0.00,CLR,,0.00,WeatherDisplay:10.37,2013-01-08 08:49:00,
2013-01-08 02:54:00,19.2,17.0,29.96,SE,135,0.0,0.0,91,0.00,CLR,,0.00,WeatherDisplay:10.37,2013-01-08 08:54:00,
2013-01-08 02:59:00,19.2,17.0,29.95,SE,135,0.0,0.0,91,0.00,CLR,,0.00,WeatherDisplay:10.37,2013-01-08 08:59:00,
2013-01-08 03:04:00,19.2,17.0,29.95,SE,135,0.0,0.0,91,0.00,CLR,,0.00,WeatherDisplay:10.37,2013-01-08 09:04:00,
2013-01-08 03:09:00,19.0,16.8,29.95,SSE,158,0.0,0.0,91,0.00,CLR,,0.00,WeatherDisplay:10.37,2013-01-08 09:09:00,
2013-01-08 03:14:00,19.0,16.8,29.95,SSE,158,0.0,0.0,91,0.00,CLR,,0.00,WeatherDisplay:10.37,2013-01-08 09:14:00,
2013-01-08 03:19:00,18.9,16.7,29.95,SSE,158,1.1,1.1,91,0.00,CLR,,0.00,WeatherDisplay:10.37,2013-01-08 09:19:00,
2013-01-08 03:24:00,19.0,16.8,29.95,SSE,158,1.1,1.1,91,0.00,CLR,,0.00,WeatherDisplay:10.37,2013-01-08 09:24:00,
2013-01-08 03:29:00,19.0,16.8,29.95,SSE,158,0.0,0.0,91,0.00,CLR,,0.00,WeatherDisplay:10.37,2013-01-08 09:29:00,
2013-01-08 03:34:00,19.2,17.0,29.94,SSE,158,0.0,0.0,91,0.00,CLR,,0.00,WeatherDisplay:10.37,2013-01-08 09:34:00,
2013-01-08 03:39:00,19.4,17.2,29.95,SSE,158,0.0,0.0,91,0.00,CLR,,0.00,WeatherDisplay:10.37,2013-01-08 09:39:00,
2013-01-08 03:44:00,19.6,17.4,29.94,SSE,158,0.0,0.0,91,0.00,CLR,,0.00,WeatherDisplay:10.37,2013-01-08 09:44:00,
2013-01-08 03:49:00,19.6,17.4,29.94,SSE,158,0.0,0.0,91,0.00,CLR,,0.00,WeatherDisplay:10.37,2013-01-08 09:49:00,
2013-01-08 03:54:00,19.8,17.6,29.93,SSE,158,0.0,0.0,91,0.00,CLR,,0.00,WeatherDisplay:10.37,2013-01-08 09:54:00,
2013-01-08 03:59:00,19.6,17.4,29.93,SSE,158,0.0,0.0,91,0.00,CLR,,0.00,WeatherDisplay:10.37,2013-01-08 09:59:00,
2013-01-08 04:04:00,19.6,17.4,29.93,SSE,158,0.0,0.0,91,0.00,CLR,,0.00,WeatherDisplay:10.37,2013-01-08 10:04:00,
2013-01-08 04:09:00,19.6,17.4,29.92,SSE,158,0.0,0.0,91,0.00,CLR,,0.00,WeatherDisplay:10.37,2013-01-08 10:09:00,
2013-01-08 04:14:00,19.6,17.4,29.93,SSE,158,0.0,0.0,91,0.00,CLR,,0.00,WeatherDisplay:10.37,2013-01-08 10:14:00,
2013-01-08 04:19:00,19.6,17.4,29.93,SSE,158,0.0,0.0,91,0.00,CLR,,0.00,WeatherDisplay:10.37,2013-01-08 10:19:00,
2013-01-08 04:24:00,19.2,17.0,29.92,SSE,158,0.0,0.0,91,0.00,CLR,,0.00,WeatherDisplay:10.37,2013-01-08 10:24:00,
2013-01-08 04:29:00,19.0,16.8,29.92,SE,135,0.3,0.3,91,0.00,CLR,,0.00,WeatherDisplay:10.37,2013-01-08 10:29:00,
2013-01-08 04:34:00,19.0,16.8,29.92,SE,135,0.0,0.0,91,0.00,CLR,,0.00,WeatherDisplay:10.37,2013-01-08 10:34:00,
2013-01-08 04:39:00,19.0,16.8,29.92,SE,135,0.0,0.0,91,0.00,CLR,,0.00,WeatherDisplay:10.37,2013-01-08 10:39:00,
2013-01-08 04:44:00,19.0,16.8,29.92,SSE,158,0.0,0.0,91,0.00,CLR,,0.00,WeatherDisplay:10.37,2013-01-08 10:44:00,
2013-01-08 04:49:00,18.9,16.4,29.92,SSE,158,0.0,0.0,90,0.00,CLR,,0.00,WeatherDisplay:10.37,2013-01-08 10:49:00,
2013-01-08 04:54:00,19.0,16.6,29.91,SSE,158,1.1,1.1,90,0.00,CLR,,0.00,WeatherDisplay:10.37,2013-01-08 10:54:00,
2013-01-08 04:59:00,19.0,16.6,29.92,SSE,158,0.0,0.0,90,0.00,CLR,,0.00,WeatherDisplay:10.37,2013-01-08 10:59:00,
2013-01-08 05:04:00,18.9,16.4,29.91,SSE,158,0.0,0.0,90,0.00,CLR,,0.00,WeatherDisplay:10.37,2013-01-08 11:04:00,
2013-01-08 05:09:00,19.0,16.6,29.91,SSE,158,0.0,0.0,90,0.00,CLR,,0.00,WeatherDisplay:10.37,2013-01-08 11:09:00,
2013-01-08 05:14:00,19.0,16.6,29.91,SSE,158,0.0,0.0,90,0.00,CLR,,0.00,WeatherDisplay:10.37,2013-01-08 11:14:00,
2013-01-08 05:19:00,19.0,16.6,29.91,SSE,158,0.0,0.0,90,0.00,CLR,,0.00,WeatherDisplay:10.37,2013-01-08 11:19:00,
2013-01-08 05:24:00,18.7,16.2,29.91,SSE,158,0.0,0.0,90,0.00,CLR,,0.00,WeatherDisplay:10.37,2013-01-08 11:24:00,
2013-01-08 05:29:00,18.3,15.6,29.91,ESE,112,0.0,0.0,89,0.00,CLR,,0.00,WeatherDisplay:10.37,2013-01-08 11:29:00,
2013-01-08 05:34:00,18.1,15.4,29.91,ESE,112,0.0,0.0,89,0.00,CLR,,0.00,WeatherDisplay:10.37,2013-01-08 11:34:00,
2013-01-08 05:39:00,18.1,15.4,29.91,ESE,112,0.0,0.0,89,0.00,CLR,,0.00,WeatherDisplay:10.37,2013-01-08 11:39:00,
2013-01-08 05:44:00,18.1,15.4,29.91,ESE,112,0.0,0.0,89,0.00,CLR,,0.00,WeatherDisplay:10.37,2013-01-08 11:44:00,
2013-01-08 05:49:00,18.3,15.6,29.91,ESE,112,0.0,0.0,89,0.00,CLR,,0.00,WeatherDisplay:10.37,2013-01-08 11:49:00,
2013-01-08 05:54:00,18.3,15.6,29.91,SE,135,0.0,0.0,89,0.00,CLR,,0.00,WeatherDisplay:10.37,2013-01-08 11:54:00,
2013-01-08 05:59:00,18.3,15.6,29.92,SE,135,0.0,0.0,89,0.00,CLR,,0.00,WeatherDisplay:10.37,2013-01-08 11:59:00,
2013-01-08 06:04:00,18.3,15.6,29.91,ESE,112,0.0,0.0,89,0.00,CLR,,0.00,WeatherDisplay:10.37,2013-01-08 12:04:00,
2013-01-08 06:09:00,18.3,15.6,29.91,ESE,112,0.0,0.0,89,0.00,CLR,,0.00,WeatherDisplay:10.37,2013-01-08 12:09:00,
2013-01-08 06:14:00,18.3,15.6,29.91,ESE,112,0.0,0.0,89,0.00,CLR,,0.00,WeatherDisplay:10.37,2013-01-08 12:14:00,
2013-01-08 06:19:00,18.1,15.4,29.91,SE,135,0.0,0.1,89,0.00,CLR,,0.00,WeatherDisplay:10.37,2013-01-08 12:19:00,
2013-01-08 06:24:00,18.0,15.3,29.91,SE,135,0.0,0.0,89,0.00,CLR,,0.00,WeatherDisplay:10.37,2013-01-08 12:24:00,
2013-01-08 06:29:00,18.0,15.3,29.91,SE,135,0.0,0.0,89,0.00,CLR,,0.00,WeatherDisplay:10.37,2013-01-08 12:29:00,
2013-01-08 06:34:00,17.8,15.1,29.91,SSE,158,0.0,0.0,89,0.00,CLR,,0.00,WeatherDisplay:10.37,2013-01-08 12:34:00,
2013-01-08 06:39:00,18.0,15.3,29.92,SSE,158,0.0,0.0,89,0.00,CLR,,0.00,WeatherDisplay:10.37,2013-01-08 12:39:00,
2013-01-08 06:44:00,18.0,15.3,29.92,SSE,158,1.1,1.4,89,0.00,CLR,,0.00,WeatherDisplay:10.37,2013-01-08 12:44:00,
2013-01-08 06:49:00,18.0,15.3,29.92,SSE,158,0.0,0.0,89,0.00,CLR,,0.00,WeatherDisplay:10.37,2013-01-08 12:49:00,
2013-01-08 06:54:00,18.0,15.3,29.92,SSE,158,1.4,1.4,89,0.00,CLR,,0.00,WeatherDisplay:10.37,2013-01-08 12:54:00,
2013-01-08 06:59:00,18.1,15.4,29.91,SSE,158,4.6,4.6,89,0.00,CLR,,0.00,WeatherDisplay:10.37,2013-01-08 12:59:00,
2013-01-08 07:04:00,18.3,15.6,29.91,SSE,158,1.1,1.1,89,0.00,CLR,,0.00,WeatherDisplay:10.37,2013-01-08 13:04:00,
2013-01-08 07:09:00,18.3,15.6,29.91,SSE,158,0.0,0.0,89,0.00,CLR,,0.00,WeatherDisplay:10.37,2013-01-08 13:09:00,
2013-01-08 07:14:00,18.1,15.4,29.91,SSE,158,1.1,1.2,89,0.00,CLR,,0.00,WeatherDisplay:10.37,2013-01-08 13:14:00,
2013-01-08 07:19:00,18.1,15.4,29.91,SSE,158,1.6,1.6,89,0.00,CLR,,0.00,WeatherDisplay:10.37,2013-01-08 13:19:00,
2013-01-08 07:24:00,18.0,15.3,29.91,SSE,158,1.1,0.0,89,0.00,CLR,,0.00,WeatherDisplay:10.37,2013-01-08 13:24:00,
2013-01-08 07:29:00,17.8,15.1,29.91,SSE,158,2.3,2.3,89,0.00,CLR,,0.00,WeatherDisplay:10.37,2013-01-08 13:29:00,
2013-01-08 07:34:00,17.8,15.1,29.91,SSE,158,2.3,2.3,89,0.00,CLR,,0.00,WeatherDisplay:10.37,2013-01-08 13:34:00,
2013-01-08 07:39:00,17.8,15.1,29.91,SSE,158,1.4,1.4,89,0.00,CLR,,0.00,WeatherDisplay:10.37,2013-01-08 13:39:00,
2013-01-08 07:44:00,17.8,15.1,29.92,SSE,158,2.7,2.7,89,0.00,CLR,,0.00,WeatherDisplay:10.37,2013-01-08 13:44:00,
2013-01-08 07:49:00,17.8,15.1,29.91,SSE,158,5.1,5.5,89,0.00,CLR,,0.00,WeatherDisplay:10.37,2013-01-08 13:49:00,
2013-01-08 07:54:00,17.8,15.1,29.91,SSE,158,3.5,3.5,89,0.00,CLR,,0.00,WeatherDisplay:10.37,2013-01-08 13:54:00,
2013-01-08 07:59:00,18.0,15.3,29.91,SSE,158,2.4,2.4,89,0.00,CLR,,0.00,WeatherDisplay:10.37,2013-01-08 13:59:00,
2013-01-08 08:04:00,18.1,15.4,29.91,SSE,158,2.3,2.3,89,0.00,CLR,,0.00,WeatherDisplay:10.37,2013-01-08 14:04:00,
2013-01-08 08:09:00,18.1,15.4,29.92,SSE,158,0.0,0.0,89,0.00,CLR,,0.00,WeatherDisplay:10.37,2013-01-08 14:09:00,
2013-01-08 08:14:00,18.1,15.4,29.92,SE,135,0.0,0.0,89,0.00,CLR,,0.00,WeatherDisplay:10.37,2013-01-08 14:14:00,
2013-01-08 08:19:00,18.0,15.3,29.92,SE,135,0.0,0.0,89,0.00,CLR,,0.00,WeatherDisplay:10.37,2013-01-08 14:19:00,
2013-01-08 08:24:00,18.1,15.4,29.92,SSE,158,1.1,1.7,89,0.00,CLR,,0.00,WeatherDisplay:10.37,2013-01-08 14:24:00,
2013-01-08 08:29:00,18.3,15.6,29.91,SSE,158,4.6,4.6,89,0.00,CLR,,0.00,WeatherDisplay:10.37,2013-01-08 14:29:00,
2013-01-08 08:34:00,18.5,15.8,29.92,SSE,158,5.8,5.8,89,0.00,CLR,,0.00,WeatherDisplay:10.37,2013-01-08 14:34:00,
2013-01-08 08:39:00,18.7,16.0,29.92,SSE,158,4.6,4.6,89,0.00,CLR,,0.00,WeatherDisplay:10.37,2013-01-08 14:39:00,
2013-01-08 08:44:00,19.0,16.6,29.92,SSE,158,6.9,7.1,90,0.00,CLR,,0.00,WeatherDisplay:10.37,2013-01-08 14:44:00,
2013-01-08 08:49:00,19.4,16.9,29.92,SSE,158,5.1,5.5,90,0.00,CLR,,0.00,WeatherDisplay:10.37,2013-01-08 14:49:00,
2013-01-08 08:54:00,19.6,17.1,29.92,SSE,158,2.3,2.3,90,0.00,CLR,,0.00,WeatherDisplay:10.37,2013-01-08 14:54:00,
2013-01-08 08:59:00,20.1,17.7,29.92,SSE,158,5.8,6.1,90,0.00,CLR,,0.00,WeatherDisplay:10.37,2013-01-08 14:59:00,
2013-01-08 09:04:00,20.3,17.8,29.92,SSE,158,6.9,7.2,90,0.00,CLR,,0.00,WeatherDisplay:10.37,2013-01-08 15:04:00,
2013-01-08 09:09:00,21.4,19.2,29.92,SSE,158,6.9,7.8,91,0.00,CLR,,0.00,WeatherDisplay:10.37,2013-01-08 15:09:00,
2013-01-08 09:14:00,22.5,20.2,29.91,SSE,158,7.8,8.1,91,0.00,CLR,,0.00,WeatherDisplay:10.37,2013-01-08 15:14:00,
2013-01-08 09:19:00,23.4,21.4,29.92,SSE,158,6.9,6.9,92,0.00,CLR,,0.00,WeatherDisplay:10.37,2013-01-08 15:19:00,
2013-01-08 09:24:00,24.4,22.5,29.91,South,180,6.9,7.8,92,0.00,CLR,,0.00,WeatherDisplay:10.37,2013-01-08 15:24:00,
2013-01-08 09:29:00,25.2,23.2,29.91,South,180,7.6,8.0,92,0.00,CLR,,0.00,WeatherDisplay:10.37,2013-01-08 15:29:00,
2013-01-08 09:34:00,25.7,23.7,29.92,South,180,6.9,7.2,92,0.00,CLR,,0.00,WeatherDisplay:10.37,2013-01-08 15:34:00,
2013-01-08 09:39:00,26.1,24.1,29.92,South,180,7.8,7.8,92,0.00,CLR,,0.00,WeatherDisplay:10.37,2013-01-08 15:39:00,
2013-01-08 09:44:00,27.1,24.9,29.91,South,180,7.6,7.8,91,0.00,CLR,,0.00,WeatherDisplay:10.37,2013-01-08 15:44:00,
2013-01-08 09:49:00,27.9,25.6,29.91,South,180,7.3,7.8,91,0.00,CLR,,0.00,WeatherDisplay:10.37,2013-01-08 15:49:00,
2013-01-08 09:54:00,28.9,26.6,29.92,South,180,7.6,7.9,91,0.00,CLR,,0.00,WeatherDisplay:10.37,2013-01-08 15:54:00,
2013-01-08 09:59:00,29.3,26.7,29.91,South,180,7.3,7.7,90,0.00,CLR,,0.00,WeatherDisplay:10.37,2013-01-08 15:59:00,
2013-01-08 10:04:00,29.3,26.7,29.91,South,180,9.2,9.2,90,0.00,CLR,,0.00,WeatherDisplay:10.37,2013-01-08 16:04:00,
2013-01-08 10:09:00,30.6,27.7,29.91,South,180,6.9,7.8,89,0.00,CLR,,0.00,WeatherDisplay:10.37,2013-01-08 16:09:00,
2013-01-08 10:14:00,31.5,28.6,29.92,SSW,202,8.1,8.1,89,0.00,CLR,,0.00,WeatherDisplay:10.37,2013-01-08 16:14:00,
2013-01-08 10:19:00,32.2,29.0,29.91,South,180,8.1,8.7,88,0.00,CLR,,0.00,WeatherDisplay:10.37,2013-01-08 16:19:00,
2013-01-08 10:24:00,32.5,29.4,29.91,South,180,10.3,10.3,88,0.00,CLR,,0.00,WeatherDisplay:10.37,2013-01-08 16:24:00,
2013-01-08 10:29:00,32.7,29.3,29.90,South,180,9.2,9.5,87,0.00,CLR,,0.00,WeatherDisplay:10.37,2013-01-08 16:29:00,
2013-01-08 10:34:00,32.5,28.8,29.91,South,180,8.1,8.4,86,0.00,CLR,,0.00,WeatherDisplay:10.37,2013-01-08 16:34:00,
2013-01-08 10:39:00,32.2,28.2,29.90,South,180,9.2,9.5,85,0.00,CLR,,0.00,WeatherDisplay:10.37,2013-01-08 16:39:00,
2013-01-08 10:44:00,32.0,28.0,29.91,South,180,8.1,8.1,85,0.00,CLR,,0.00,WeatherDisplay:10.37,2013-01-08 16:44:00,
2013-01-08 10:49:00,31.6,27.6,29.90,South,180,8.1,8.1,85,0.00,CLR,,0.00,WeatherDisplay:10.37,2013-01-08 16:49:00,
2013-01-08 10:54:00,32.7,29.0,29.90,SSE,158,7.3,7.3,86,0.00,CLR,,0.00,WeatherDisplay:10.37,2013-01-08 16:54:00,
2013-01-08 10:59:00,33.3,29.8,29.90,South,180,6.9,6.9,87,0.00,CLR,,0.00,WeatherDisplay:10.37,2013-01-08 16:59:00,
2013-01-08 11:04:00,34.0,30.5,29.89,SSE,158,8.1,8.4,87,0.00,CLR,,0.00,WeatherDisplay:10.37,2013-01-08 17:04:00,
2013-01-08 11:09:00,35.2,31.8,29.89,SSE,158,6.9,6.9,87,0.00,CLR,,0.00,WeatherDisplay:10.37,2013-01-08 17:09:00,
2013-01-08 11:14:00,35.8,32.0,29.89,South,180,8.1,8.1,86,0.00,CLR,,0.00,WeatherDisplay:10.37,2013-01-08 17:14:00,
2013-01-08 11:19:00,36.1,32.4,29.89,South,180,8.1,8.4,86,0.00,CLR,,0.00,WeatherDisplay:10.37,2013-01-08 17:19:00,
2013-01-08 11:24:00,36.3,32.2,29.89,South,180,8.1,8.1,85,0.00,CLR,,0.00,WeatherDisplay:10.37,2013-01-08 17:24:00,
2013-01-08 11:29:00,36.7,32.6,29.89,SSW,202,8.1,8.4,85,0.00,CLR,,0.00,WeatherDisplay:10.37,2013-01-08 17:29:00,
2013-01-08 11:34:00,37.0,32.9,29.88,South,180,8.1,8.4,85,0.00,CLR,,0.00,WeatherDisplay:10.37,2013-01-08 17:34:00,
2013-01-08 11:39:00,37.6,33.5,29.87,SSW,202,8.4,9.0,85,0.00,CLR,,0.00,WeatherDisplay:10.37,2013-01-08 17:39:00,
2013-01-08 11:44:00,37.6,33.5,29.87,SSW,202,8.1,8.7,85,0.00,CLR,,0.00,WeatherDisplay:10.37,2013-01-08 17:44:00,
2013-01-08 11:49:00,37.8,33.7,29.86,South,180,8.1,8.7,85,0.00,CLR,,0.00,WeatherDisplay:10.37,2013-01-08 17:49:00,
2013-01-08 11:54:00,37.8,33.7,29.86,South,180,9.2,9.3,85,0.00,CLR,,0.00,WeatherDisplay:10.37,2013-01-08 17:54:00,
2013-01-08 11:59:00,37.8,33.7,29.85,South,180,6.9,7.5,85,0.00,CLR,,0.00,WeatherDisplay:10.37,2013-01-08 17:59:00,
2013-01-08 12:04:00,38.1,34.0,29.85,SSW,202,7.0,7.0,85,0.00,CLR,,0.00,WeatherDisplay:10.37,2013-01-08 18:04:00,
2013-01-08 12:09:00,38.1,34.0,29.84,SSW,202,8.1,8.3,85,0.00,CLR,,0.00,WeatherDisplay:10.37,2013-01-08 18:09:00,
2013-01-08 12:14:00,38.3,34.2,29.84,South,180,8.1,8.4,85,0.00,CLR,,0.00,WeatherDisplay:10.37,2013-01-08 18:14:00,
2013-01-08 12:19:00,38.3,33.9,29.83,South,180,9.2,9.2,84,0.00,CLR,,0.00,WeatherDisplay:10.37,2013-01-08 18:19:00,
2013-01-08 12:24:00,38.3,33.9,29.83,SSW,202,9.2,9.3,84,0.00,CLR,,0.00,WeatherDisplay:10.37,2013-01-08 18:24:00,
2013-01-08 12:29:00,38.5,34.4,29.84,SSW,202,10.4,11.0,85,0.00,CLR,,0.00,WeatherDisplay:10.37,2013-01-08 18:29:00,
2013-01-08 12:34:00,38.7,34.5,29.83,SSW,202,10.8,10.8,85,0.00,CLR,,0.00,WeatherDisplay:10.37,2013-01-08 18:34:00,
2013-01-08 12:39:00,38.8,34.4,29.82,South,180,8.1,8.4,84,0.00,CLR,,0.00,WeatherDisplay:10.37,2013-01-08 18:39:00,
2013-01-08 12:44:00,38.7,34.2,29.82,South,180,7.3,7.8,84,0.00,CLR,,0.00,WeatherDisplay:10.37,2013-01-08 18:44:00,
2013-01-08 12:49:00,38.7,34.2,29.82,South,180,9.5,9.5,84,0.00,CLR,,0.00,WeatherDisplay:10.37,2013-01-08 18:49:00,
2013-01-08 12:54:00,38.7,34.2,29.81,South,180,9.2,9.8,84,0.00,CLR,,0.00,WeatherDisplay:10.37,2013-01-08 18:54:00,
2013-01-08 12:59:00,38.8,34.4,29.81,South,180,8.1,9.0,84,0.00,CLR,,0.00,WeatherDisplay:10.37,2013-01-08 18:59:00,
2013-01-08 13:04:00,38.7,34.2,29.81,South,180,10.4,10.4,84,0.00,CLR,,0.00,WeatherDisplay:10.37,2013-01-08 19:04:00,
2013-01-08 13:09:00,38.7,34.2,29.81,South,180,6.9,7.2,84,0.00,CLR,,0.00,WeatherDisplay:10.37,2013-01-08 19:09:00,
2013-01-08 13:14:00,39.0,34.9,29.82,SSW,202,8.1,8.1,85,0.00,CLR,,0.00,WeatherDisplay:10.37,2013-01-08 19:14:00,
2013-01-08 13:19:00,39.4,35.2,29.82,SSW,202,9.2,9.2,85,0.00,CLR,,0.00,WeatherDisplay:10.37,2013-01-08 19:19:00,
2013-01-08 13:24:00,39.7,35.6,29.82,SW,225,9.7,10.4,85,0.00,CLR,,0.00,WeatherDisplay:10.37,2013-01-08 19:24:00,
2013-01-08 13:29:00,39.9,35.5,29.82,SSW,202,10.5,11.3,84,0.00,CLR,,0.00,WeatherDisplay:10.37,2013-01-08 19:29:00,
2013-01-08 13:34:00,40.1,35.7,29.81,SSW,202,9.2,9.5,84,0.00,CLR,,0.00,WeatherDisplay:10.37,2013-01-08 19:34:00,
2013-01-08 13:39:00,40.1,35.7,29.81,SSW,202,8.1,9.0,84,0.00,CLR,,0.00,WeatherDisplay:10.37,2013-01-08 19:39:00,
2013-01-08 13:44:00,40.1,35.7,29.81,SSW,202,9.2,9.5,84,0.00,CLR,,0.00,WeatherDisplay:10.37,2013-01-08 19:44:00,
2013-01-08 13:49:00,40.3,35.8,29.81,SW,225,9.2,9.2,84,0.00,CLR,,0.00,WeatherDisplay:10.37,2013-01-08 19:49:00,
2013-01-08 13:54:00,40.1,35.7,29.81,SW,225,8.1,8.1,84,0.00,CLR,,0.00,WeatherDisplay:10.37,2013-01-08 19:54:00,
2013-01-08 13:59:00,40.3,35.8,29.81,SW,225,8.1,8.1,84,0.00,CLR,,0.00,WeatherDisplay:10.37,2013-01-08 19:59:00,
2013-01-08 14:04:00,40.3,35.8,29.81,SW,225,8.1,8.2,84,0.00,CLR,,0.00,WeatherDisplay:10.37,2013-01-08 20:04:00,
2013-01-08 14:09:00,40.3,35.8,29.81,SW,225,5.8,6.1,84,0.00,CLR,,0.00,WeatherDisplay:10.37,2013-01-08 20:09:00,
2013-01-08 14:14:00,40.5,36.0,29.82,SW,225,5.8,6.1,84,0.00,CLR,,0.00,WeatherDisplay:10.37,2013-01-08 20:14:00,
2013-01-08 14:19:00,40.6,36.2,29.82,SW,225,4.6,4.6,84,0.00,CLR,,0.00,WeatherDisplay:10.37,2013-01-08 20:19:00,
2013-01-08 14:24:00,41.0,36.5,29.81,SW,225,1.6,1.7,84,0.00,CLR,,0.00,WeatherDisplay:10.37,2013-01-08 20:24:00,
2013-01-08 14:29:00,41.2,36.7,29.81,SW,225,3.5,4.1,84,0.00,CLR,,0.00,WeatherDisplay:10.37,2013-01-08 20:29:00,
2013-01-08 14:34:00,41.2,36.4,29.82,SSW,202,5.1,5.3,83,0.00,CLR,,0.00,WeatherDisplay:10.37,2013-01-08 20:34:00,
2013-01-08 14:39:00,41.0,36.2,29.82,SW,225,4.6,4.6,83,0.00,CLR,,0.00,WeatherDisplay:10.37,2013-01-08 20:39:00,
2013-01-08 14:44:00,41.2,36.4,29.83,SW,225,0.0,0.0,83,0.00,CLR,,0.00,WeatherDisplay:10.37,2013-01-08 20:44:00,
2013-01-08 14:49:00,41.4,36.6,29.83,SSW,202,3.5,3.5,83,0.00,CLR,,0.00,WeatherDisplay:10.37,2013-01-08 20:49:00,
2013-01-08 14:54:00,41.5,36.8,29.83,SW,225,0.0,0.0,83,0.00,CLR,,0.00,WeatherDisplay:10.37,2013-01-08 20:54:00,
2013-01-08 14:59:00,41.7,36.6,29.84,SW,225,1.4,1.6,82,0.00,CLR,,0.00,WeatherDisplay:10.37,2013-01-08 20:59:00,
2013-01-08 15:04:00,41.7,36.6,29.84,SW,225,0.0,0.0,82,0.00,CLR,,0.00,WeatherDisplay:10.37,2013-01-08 21:04:00,
2013-01-08 15:09:00,41.7,36.6,29.84,SW,225,0.0,0.0,82,0.00,CLR,,0.00,WeatherDisplay:10.37,2013-01-08 21:09:00,
2013-01-08 15:14:00,41.7,36.6,29.84,SSW,202,0.3,0.3,82,0.00,CLR,,0.00,WeatherDisplay:10.37,2013-01-08 21:14:00,
2013-01-08 15:19:00,41.7,36.6,29.84,SSW,202,1.1,1.1,82,0.00,CLR,,0.00,WeatherDisplay:10.37,2013-01-08 21:19:00,
2013-01-08 15:24:00,41.7,36.6,29.84,SSW,202,0.0,0.0,82,0.00,CLR,,0.00,WeatherDisplay:10.37,2013-01-08 21:24:00,
2013-01-08 15:29:00,41.9,36.5,29.85,SW,225,0.0,0.0,81,0.00,CLR,,0.00,WeatherDisplay:10.37,2013-01-08 21:29:00,
2013-01-08 15:34:00,41.9,36.5,29.85,SW,225,0.0,0.0,81,0.00,CLR,,0.00,WeatherDisplay:10.37,2013-01-08 21:34:00,
2013-01-08 15:39:00,41.9,36.2,29.84,WSW,248,4.6,4.6,80,0.00,CLR,,0.00,WeatherDisplay:10.37,2013-01-08 21:39:00,
2013-01-08 15:44:00,41.2,35.5,29.85,WSW,248,8.1,8.1,80,0.00,CLR,,0.00,WeatherDisplay:10.37,2013-01-08 21:44:00,
2013-01-08 15:49:00,40.6,35.0,29.85,WSW,248,8.1,8.4,80,0.00,CLR,,0.00,WeatherDisplay:10.37,2013-01-08 21:49:00,
2013-01-08 15:54:00,40.3,34.6,29.84,SW,225,1.1,1.1,80,0.00,CLR,,0.00,WeatherDisplay:10.37,2013-01-08 21:54:00,
2013-01-08 15:59:00,39.9,34.6,29.85,SW,225,4.6,4.6,81,0.00,CLR,,0.00,WeatherDisplay:10.37,2013-01-08 21:59:00,
2013-01-08 16:04:00,39.9,34.6,29.85,WSW,248,1.1,1.4,81,0.00,CLR,,0.00,WeatherDisplay:10.37,2013-01-08 22:04:00,
2013-01-08 16:09:00,39.4,34.0,29.85,SW,225,3.5,3.5,81,0.00,CLR,,0.00,WeatherDisplay:10.37,2013-01-08 22:09:00,
2013-01-08 16:14:00,39.4,34.3,29.85,WSW,248,2.3,2.3,82,0.00,CLR,,0.00,WeatherDisplay:10.37,2013-01-08 22:14:00,
2013-01-08 16:19:00,39.0,34.0,29.85,WSW,248,0.0,0.0,82,0.00,CLR,,0.00,WeatherDisplay:10.37,2013-01-08 22:19:00,
2013-01-08 16:24:00,38.8,33.8,29.84,WSW,248,1.1,1.1,82,0.00,CLR,,0.00,WeatherDisplay:10.37,2013-01-08 22:24:00,
2013-01-08 16:29:00,38.5,33.5,29.85,WSW,248,4.6,4.6,82,0.00,CLR,,0.00,WeatherDisplay:10.37,2013-01-08 22:29:00,
2013-01-08 16:34:00,38.1,33.1,29.85,WSW,248,5.8,6.1,82,0.00,CLR,,0.00,WeatherDisplay:10.37,2013-01-08 22:34:00,
2013-01-08 16:39:00,38.1,33.4,29.86,WSW,248,0.0,0.0,83,0.00,CLR,,0.00,WeatherDisplay:10.37,2013-01-08 22:39:00,
2013-01-08 16:44:00,37.9,33.2,29.87,West,270,2.3,2.3,83,0.00,CLR,,0.00,WeatherDisplay:10.37,2013-01-08 22:44:00,
2013-01-08 16:49:00,37.8,33.1,29.87,WSW,248,3.5,3.5,83,0.00,CLR,,0.00,WeatherDisplay:10.37,2013-01-08 22:49:00,
2013-01-08 16:54:00,37.6,32.9,29.87,WSW,248,4.1,4.1,83,0.00,CLR,,0.00,WeatherDisplay:10.37,2013-01-08 22:54:00,
2013-01-08 16:59:00,37.0,32.4,29.87,WSW,248,4.6,4.7,83,0.00,CLR,,0.00,WeatherDisplay:10.37,2013-01-08 22:59:00,
2013-01-08 17:04:00,36.9,32.5,29.87,WSW,248,5.8,5.8,84,0.00,CLR,,0.00,WeatherDisplay:10.37,2013-01-08 23:04:00,
2013-01-08 17:09:00,36.5,32.1,29.87,WSW,248,5.8,5.8,84,0.00,CLR,,0.00,WeatherDisplay:10.37,2013-01-08 23:09:00,
2013-01-08 17:14:00,36.1,31.8,29.87,WSW,248,3.5,3.5,84,0.00,CLR,,0.00,WeatherDisplay:10.37,2013-01-08 23:14:00,
2013-01-08 17:19:00,36.0,31.6,29.88,WSW,248,4.6,4.9,84,0.00,CLR,,0.00,WeatherDisplay:10.37,2013-01-08 23:19:00,
2013-01-08 17:24:00,35.8,31.4,29.88,WSW,248,1.1,1.2,84,0.00,CLR,,0.00,WeatherDisplay:10.37,2013-01-08 23:24:00,
2013-01-08 17:29:00,35.4,31.1,29.89,WSW,248,8.1,8.1,84,0.00,CLR,,0.00,WeatherDisplay:10.37,2013-01-08 23:29:00,
2013-01-08 17:34:00,35.4,31.4,29.88,WSW,248,8.1,8.7,85,0.00,CLR,,0.00,WeatherDisplay:10.37,2013-01-08 23:34:00,
2013-01-08 17:39:00,35.6,31.5,29.88,WSW,248,8.1,8.3,85,0.00,CLR,,0.00,WeatherDisplay:10.37,2013-01-08 23:39:00,
2013-01-08 17:44:00,35.8,31.7,29.89,WSW,248,8.1,8.4,85,0.00,CLR,,0.00,WeatherDisplay:10.37,2013-01-08 23:44:00,
2013-01-08 17:49:00,35.8,31.7,29.89,WSW,248,8.1,8.4,85,0.00,CLR,,0.00,WeatherDisplay:10.37,2013-01-08 23:49:00,
2013-01-08 17:54:00,35.6,31.5,29.89,WSW,248,8.1,8.1,85,0.00,CLR,,0.00,WeatherDisplay:10.37,2013-01-08 23:54:00,
2013-01-08 17:59:00,35.6,31.5,29.89,WSW,248,2.7,2.9,85,0.00,CLR,,0.00,WeatherDisplay:10.37,2013-01-08 23:59:00,
2013-01-08 18:04:00,35.2,31.2,29.89,WSW,248,8.1,8.4,85,0.00,CLR,,0.00,WeatherDisplay:10.37,2013-01-09 00:04:00,
2013-01-08 18:09:00,35.2,31.2,29.89,WSW,248,9.5,9.5,85,0.00,CLR,,0.00,WeatherDisplay:10.37,2013-01-09 00:09:00,
2013-01-08 18:14:00,35.1,31.3,29.89,WSW,248,9.2,10.1,86,0.00,CLR,,0.00,WeatherDisplay:10.37,2013-01-09 00:14:00,
2013-01-08 18:19:00,35.1,31.3,29.89,WSW,248,7.3,7.6,86,0.00,CLR,,0.00,WeatherDisplay:10.37,2013-01-09 00:19:00,
2013-01-08 18:24:00,34.9,31.1,29.89,WSW,248,8.1,8.1,86,0.00,CLR,,0.00,WeatherDisplay:10.37,2013-01-09 00:24:00,
2013-01-08 18:29:00,34.9,31.1,29.89,WSW,248,6.9,7.2,86,0.00,CLR,,0.00,WeatherDisplay:10.37,2013-01-09 00:29:00,
2013-01-08 18:34:00,34.7,30.9,29.90,WSW,248,8.1,8.1,86,0.00,CLR,,0.00,WeatherDisplay:10.37,2013-01-09 00:34:00,
2013-01-08 18:39:00,34.7,31.2,29.90,WSW,248,11.5,11.7,87,0.00,CLR,,0.00,WeatherDisplay:10.37,2013-01-09 00:39:00,
2013-01-08 18:44:00,34.7,31.2,29.90,SW,225,11.5,12.2,87,0.00,CLR,,0.00,WeatherDisplay:10.37,2013-01-09 00:44:00,
2013-01-08 18:49:00,34.7,31.2,29.90,SW,225,12.7,13.9,87,0.00,CLR,,0.00,WeatherDisplay:10.37,2013-01-09 00:49:00,
2013-01-08 18:54:00,35.1,31.9,29.90,WSW,248,13.0,13.0,88,0.00,CLR,,0.00,WeatherDisplay:10.37,2013-01-09 00:54:00,
2013-01-08 18:59:00,35.1,31.9,29.90,WSW,248,12.7,13.6,88,0.00,CLR,,0.00,WeatherDisplay:10.37,2013-01-09 00:59:00,
2013-01-08 19:04:00,35.2,32.0,29.91,WSW,248,10.3,10.3,88,0.00,CLR,,0.00,WeatherDisplay:10.37,2013-01-09 01:04:00,
2013-01-08 19:09:00,35.1,31.9,29.91,WSW,248,9.2,10.1,88,0.00,CLR,,0.00,WeatherDisplay:10.37,2013-01-09 01:09:00,
2013-01-08 19:14:00,35.1,31.9,29.91,WSW,248,9.2,9.3,88,0.00,CLR,,0.00,WeatherDisplay:10.37,2013-01-09 01:14:00,
2013-01-08 19:19:00,35.1,31.9,29.91,WSW,248,10.5,10.5,88,0.00,CLR,,0.00,WeatherDisplay:10.37,2013-01-09 01:19:00,
2013-01-08 19:24:00,35.1,31.9,29.92,WSW,248,11.5,11.5,88,0.00,CLR,,0.00,WeatherDisplay:10.37,2013-01-09 01:24:00,
2013-01-08 19:29:00,35.1,31.9,29.92,WSW,248,11.9,12.7,88,0.00,CLR,,0.00,WeatherDisplay:10.37,2013-01-09 01:29:00,
2013-01-08 19:34:00,35.1,31.9,29.93,WSW,248,12.7,12.8,88,0.00,CLR,,0.00,WeatherDisplay:10.37,2013-01-09 01:34:00,
2013-01-08 19:39:00,35.2,32.0,29.94,WSW,248,18.4,18.4,88,0.00,CLR,,0.00,WeatherDisplay:10.37,2013-01-09 01:39:00,
2013-01-08 19:44:00,35.2,32.0,29.94,WSW,248,16.5,17.6,88,0.00,CLR,,0.00,WeatherDisplay:10.37,2013-01-09 01:44:00,
2013-01-08 19:49:00,35.2,32.0,29.94,WSW,248,13.8,14.3,88,0.00,CLR,,0.00,WeatherDisplay:10.37,2013-01-09 01:49:00,
2013-01-08 19:54:00,35.2,32.0,29.95,WSW,248,13.8,13.8,88,0.00,CLR,,0.00,WeatherDisplay:10.37,2013-01-09 01:54:00,
2013-01-08 19:59:00,35.2,32.0,29.95,SW,225,11.9,12.7,88,0.00,CLR,,0.00,WeatherDisplay:10.37,2013-01-09 01:59:00,
2013-01-08 20:04:00,35.2,32.0,29.95,WSW,248,13.8,14.6,88,0.00,CLR,,0.00,WeatherDisplay:10.37,2013-01-09 02:04:00,
2013-01-08 20:09:00,35.2,32.0,29.96,WSW,248,11.5,12.2,88,0.00,CLR,,0.00,WeatherDisplay:10.37,2013-01-09 02:09:00,
2013-01-08 20:14:00,35.2,32.0,29.96,WSW,248,11.5,11.9,88,0.00,CLR,,0.00,WeatherDisplay:10.37,2013-01-09 02:14:00,
2013-01-08 20:19:00,35.2,31.8,29.96,WSW,248,11.6,11.6,87,0.00,CLR,,0.00,WeatherDisplay:10.37,2013-01-09 02:19:00,
2013-01-08 20:24:00,35.1,31.6,29.96,WSW,248,10.8,11.6,87,0.00,CLR,,0.00,WeatherDisplay:10.37,2013-01-09 02:24:00,
2013-01-08 20:29:00,35.1,31.6,29.96,WSW,248,9.2,9.3,87,0.00,CLR,,0.00,WeatherDisplay:10.37,2013-01-09 02:29:00,
2013-01-08 20:34:00,35.1,31.6,29.96,WSW,248,11.5,11.5,87,0.00,CLR,,0.00,WeatherDisplay:10.37,2013-01-09 02:34:00,
2013-01-08 20:39:00,35.1,31.6,29.97,WSW,248,9.7,10.3,87,0.00,CLR,,0.00,WeatherDisplay:10.37,2013-01-09 02:39:00,
2013-01-08 20:44:00,35.1,31.6,29.97,WSW,248,12.7,13.0,87,0.00,CLR,,0.00,WeatherDisplay:10.37,2013-01-09 02:44:00,
2013-01-08 20:49:00,34.9,31.4,29.97,WSW,248,10.5,11.5,87,0.00,CLR,,0.00,WeatherDisplay:10.37,2013-01-09 02:49:00,
2013-01-08 20:54:00,34.7,31.2,29.97,WSW,248,11.9,12.7,87,0.00,CLR,,0.00,WeatherDisplay:10.37,2013-01-09 02:54:00,
2013-01-08 20:59:00,34.7,31.2,29.99,WSW,248,9.2,9.3,87,0.00,CLR,,0.00,WeatherDisplay:10.37,2013-01-09 02:59:00,
2013-01-08 21:04:00,34.5,31.0,29.99,WSW,248,12.7,12.7,87,0.00,CLR,,0.00,WeatherDisplay:10.37,2013-01-09 03:04:00,
2013-01-08 21:09:00,34.3,30.9,29.99,WSW,248,11.5,12.2,87,0.00,CLR,,0.00,WeatherDisplay:10.37,2013-01-09 03:09:00,
2013-01-08 21:14:00,34.3,30.9,29.99,WSW,248,13.8,14.8,87,0.00,CLR,,0.00,WeatherDisplay:10.37,2013-01-09 03:14:00,
2013-01-08 21:19:00,34.2,30.7,29.99,WSW,248,15.0,15.0,87,0.00,CLR,,0.00,WeatherDisplay:10.37,2013-01-09 03:19:00,
2013-01-08 21:24:00,34.2,30.7,29.99,WSW,248,9.2,9.5,87,0.00,CLR,,0.00,WeatherDisplay:10.37,2013-01-09 03:24:00,
2013-01-08 21:29:00,34.2,30.7,29.99,West,270,11.6,12.4,87,0.00,CLR,,0.00,WeatherDisplay:10.37,2013-01-09 03:29:00,
2013-01-08 21:34:00,34.2,30.7,30.00,WSW,248,12.7,13.6,87,0.00,CLR,,0.00,WeatherDisplay:10.37,2013-01-09 03:34:00,
2013-01-08 21:39:00,34.2,30.7,30.00,WSW,248,9.2,9.8,87,0.00,CLR,,0.00,WeatherDisplay:10.37,2013-01-09 03:39:00,
2013-01-08 21:44:00,34.2,30.7,30.01,WSW,248,10.8,11.3,87,0.00,CLR,,0.00,WeatherDisplay:10.37,2013-01-09 03:44:00,
2013-01-08 21:49:00,34.2,30.7,30.01,WSW,248,11.6,11.6,87,0.00,CLR,,0.00,WeatherDisplay:10.37,2013-01-09 03:49:00,
2013-01-08 21:54:00,34.2,31.0,30.01,WSW,248,11.9,12.7,88,0.00,CLR,,0.00,WeatherDisplay:10.37,2013-01-09 03:54:00,
2013-01-08 21:59:00,34.0,30.8,30.01,WSW,248,13.8,14.8,88,0.00,CLR,,0.00,WeatherDisplay:10.37,2013-01-09 03:59:00,
2013-01-08 22:04:00,34.2,31.0,30.02,WSW,248,12.7,12.7,88,0.00,CLR,,0.00,WeatherDisplay:10.37,2013-01-09 04:04:00,
2013-01-08 22:09:00,34.0,30.8,30.02,WSW,248,11.5,12.2,88,0.00,CLR,,0.00,WeatherDisplay:10.37,2013-01-09 04:09:00,
2013-01-08 22:14:00,34.0,30.8,30.02,WSW,248,8.1,8.3,88,0.00,CLR,,0.00,WeatherDisplay:10.37,2013-01-09 04:14:00,
2013-01-08 22:19:00,34.0,30.8,30.02,WSW,248,11.5,11.5,88,0.00,CLR,,0.00,WeatherDisplay:10.37,2013-01-09 04:19:00,
2013-01-08 22:24:00,33.8,30.6,30.02,WSW,248,8.1,8.4,88,0.00,CLR,,0.00,WeatherDisplay:10.37,2013-01-09 04:24:00,
2013-01-08 22:30:00,33.6,30.4,30.03,WSW,248,13.0,13.0,88,0.00,CLR,,0.00,WeatherDisplay:10.37,2013-01-09 04:30:00,
2013-01-08 22:34:00,33.8,30.6,30.02,WSW,248,10.4,11.0,88,0.00,CLR,,0.00,WeatherDisplay:10.37,2013-01-09 04:34:00,
2013-01-08 22:39:00,33.8,30.6,30.03,WSW,248,11.6,12.4,88,0.00,CLR,,0.00,WeatherDisplay:10.37,2013-01-09 04:39:00,
2013-01-08 22:44:00,33.6,30.4,30.03,WSW,248,12.7,12.7,88,0.00,CLR,,0.00,WeatherDisplay:10.37,2013-01-09 04:44:00,
2013-01-08 22:50:00,33.4,30.3,30.03,West,270,10.4,10.4,88,0.00,CLR,,0.00,WeatherDisplay:10.37,2013-01-09 04:50:00,
2013-01-08 22:54:00,33.4,30.3,30.03,WSW,248,8.1,8.4,88,0.00,CLR,,0.00,WeatherDisplay:10.37,2013-01-09 04:54:00,
2013-01-08 23:00:00,33.3,30.1,30.04,West,270,9.2,9.2,88,0.00,CLR,,0.00,WeatherDisplay:10.37,2013-01-09 05:00:00,
2013-01-08 23:01:00,33.3,30.1,30.04,West,270,7.3,7.8,88,0.00,CLR,,0.00,WeatherDisplay:10.37,2013-01-09 05:01:00,
2013-01-08 23:03:00,33.3,30.1,30.04,West,270,9.2,9.8,88,0.00,CLR,,0.00,WeatherDisplay:10.37,2013-01-09 05:03:00,
2013-01-08 23:08:00,33.3,30.1,30.05,WSW,248,13.8,14.0,88,0.00,CLR,,0.00,WeatherDisplay:10.37,2013-01-09 05:08:00,
2013-01-08 23:13:00,33.3,30.1,30.05,WSW,248,13.0,13.5,88,0.00,CLR,,0.00,WeatherDisplay:10.37,2013-01-09 05:13:00,
2013-01-08 23:18:00,33.3,30.1,30.05,WSW,248,10.5,11.3,88,0.00,CLR,,0.00,WeatherDisplay:10.37,2013-01-09 05:18:00,
2013-01-08 23:23:00,33.3,30.1,30.05,West,270,12.7,12.9,88,0.00,CLR,,0.00,WeatherDisplay:10.37,2013-01-09 05:23:00,
2013-01-08 23:28:00,33.3,30.1,30.05,WSW,248,11.5,12.2,88,0.00,CLR,,0.00,WeatherDisplay:10.37,2013-01-09 05:28:00,
2013-01-08 23:33:00,33.3,30.1,30.05,WSW,248,9.2,10.1,88,0.00,CLR,,0.00,WeatherDisplay:10.37,2013-01-09 05:33:00,
2013-01-08 23:38:00,33.1,29.9,30.05,SW,225,11.5,12.0,88,0.00,CLR,,0.00,WeatherDisplay:10.37,2013-01-09 05:38:00,
2013-01-08 23:43:00,33.3,30.1,30.05,WSW,248,12.7,13.6,88,0.00,CLR,,0.00,WeatherDisplay:10.37,2013-01-09 05:43:00,
2013-01-08 23:48:00,32.9,29.7,30.05,SW,225,11.5,11.9,88,0.00,CLR,,0.00,WeatherDisplay:10.37,2013-01-09 05:48:00,
2013-01-08 23:53:00,32.9,29.7,30.05,WSW,248,11.5,11.5,88,0.00,CLR,,0.00,WeatherDisplay:10.37,2013-01-09 05:53:00,
2013-01-08 23:58:00,32.9,29.7,30.05,WSW,248,9.2,9.8,88,0.00,CLR,,0.00,WeatherDisplay:10.37,2013-01-09 05:58:00,